sensor_id;sensor_type;location;lat;lon;timestamp;pressure;altitude;pressure_sealevel;temperature;humidity
44979;BME280;67464;52.438;-1.904;2023-04-10T00:00:27;99808.45;;;5.95;100.00
44979;BME280;67464;52.438;-1.904;2023-04-10T00:02:50;99809.57;;;5.76;100.00
44979;BME280;67464;52.438;-1.904;2023-04-10T00:05:16;99798.70;;;5.28;100.00
44979;BME280;67464;52.438;-1.904;2023-04-10T00:07:41;99783.72;;;6.49;100.00
44979;BME280;67464;52.438;-1.904;2023-04-10T00:10:07;99784.45;;;6.19;100.00
44979;BME280;67464;52.438;-1.904;2023-04-10T00:12:34;99772.07;;;5.65;100.00
44979;BME280;67464;52.438;-1.904;2023-04-10T00:14:58;99764.63;;;6.00;100.00
44979;BME280;67464;52.438;-1.904;2023-04-10T00:17:24;99765.77;;;5.86;100.00
44979;BME280;67464;52.438;-1.904;2023-04-10T00:19:49;99755.27;;;5.85;100.00
44979;BME280;67464;52.438;-1.904;2023-04-10T00:22:14;99749.34;;;6.28;100.00
44979;BME280;67464;52.438;-1.904;2023-04-10T00:24:40;99748.01;;;5.83;100.00
44979;BME280;67464;52.438;-1.904;2023-04-10T00:27:05;99745.04;;;6.38;100.00
44979;BME280;67464;52.438;-1.904;2023-04-10T00:29:30;99747.37;;;5.89;100.00
44979;BME280;67464;52.438;-1.904;2023-04-10T00:31:56;99751.49;;;5.28;100.00
44979;BME280;67464;52.438;-1.904;2023-04-10T00:34:21;99751.10;;;5.07;100.00
44979;BME280;67464;52.438;-1.904;2023-04-10T00:36:46;99751.67;;;5.85;100.00
44979;BME280;67464;52.438;-1.904;2023-04-10T00:39:12;99751.47;;;5.36;100.00
44979;BME280;67464;52.438;-1.904;2023-04-10T00:41:36;99748.96;;;5.33;100.00
44979;BME280;67464;52.438;-1.904;2023-04-10T00:44:01;99745.48;;;5.23;100.00
44979;BME280;67464;52.438;-1.904;2023-04-10T00:46:27;99739.07;;;4.96;100.00
44979;BME280;67464;52.438;-1.904;2023-04-10T00:48:53;99728.55;;;4.90;100.00
44979;BME280;67464;52.438;-1.904;2023-04-10T00:51:18;99722.20;;;5.30;100.00
44979;BME280;67464;52.438;-1.904;2023-04-10T00:53:43;99718.16;;;4.98;100.00
44979;BME280;67464;52.438;-1.904;2023-04-10T00:56:08;99710.08;;;5.19;100.00
44979;BME280;67464;52.438;-1.904;2023-04-10T00:58:33;99708.17;;;5.02;100.00
44979;BME280;67464;52.438;-1.904;2023-04-10T01:00:59;99711.08;;;5.12;100.00
44979;BME280;67464;52.438;-1.904;2023-04-10T01:03:24;99700.26;;;5.09;100.00
44979;BME280;67464;52.438;-1.904;2023-04-10T01:05:57;99694.25;;;5.33;100.00
44979;BME280;67464;52.438;-1.904;2023-04-10T01:08:22;99698.15;;;5.15;100.00
44979;BME280;67464;52.438;-1.904;2023-04-10T01:10:45;99692.52;;;5.69;100.00
44979;BME280;67464;52.438;-1.904;2023-04-10T01:13:13;99689.08;;;5.73;100.00
44979;BME280;67464;52.438;-1.904;2023-04-10T01:15:38;99677.73;;;5.43;100.00
44979;BME280;67464;52.438;-1.904;2023-04-10T01:18:02;99675.57;;;5.29;100.00
44979;BME280;67464;52.438;-1.904;2023-04-10T01:20:24;99673.06;;;5.63;100.00
44979;BME280;67464;52.438;-1.904;2023-04-10T01:25:27;99664.75;;;6.08;100.00
44979;BME280;67464;52.438;-1.904;2023-04-10T01:27:45;99658.43;;;5.48;100.00
44979;BME280;67464;52.438;-1.904;2023-04-10T01:30:06;99651.56;;;5.34;100.00
44979;BME280;67464;52.438;-1.904;2023-04-10T01:32:32;99652.93;;;4.98;100.00
44979;BME280;67464;52.438;-1.904;2023-04-10T01:34:58;99652.95;;;5.62;100.00
44979;BME280;67464;52.438;-1.904;2023-04-10T01:37:24;99645.28;;;6.24;100.00
44979;BME280;67464;52.438;-1.904;2023-04-10T01:39:53;99648.50;;;6.67;100.00
44979;BME280;67464;52.438;-1.904;2023-04-10T01:42:14;99637.83;;;6.54;100.00
44979;BME280;67464;52.438;-1.904;2023-04-10T01:44:41;99634.32;;;7.19;100.00
44979;BME280;67464;52.438;-1.904;2023-04-10T01:47:06;99635.21;;;6.78;100.00
44979;BME280;67464;52.438;-1.904;2023-04-10T01:49:30;99637.89;;;5.94;100.00
44979;BME280;67464;52.438;-1.904;2023-04-10T01:51:55;99637.22;;;6.40;100.00
44979;BME280;67464;52.438;-1.904;2023-04-10T01:54:20;99638.83;;;6.17;100.00
44979;BME280;67464;52.438;-1.904;2023-04-10T01:56:46;99633.47;;;6.36;100.00
44979;BME280;67464;52.438;-1.904;2023-04-10T01:59:12;99632.09;;;6.59;100.00
44979;BME280;67464;52.438;-1.904;2023-04-10T02:01:37;99626.34;;;6.28;100.00
44979;BME280;67464;52.438;-1.904;2023-04-10T02:04:03;99623.41;;;6.57;100.00
44979;BME280;67464;52.438;-1.904;2023-04-10T02:06:36;99624.21;;;6.55;100.00
44979;BME280;67464;52.438;-1.904;2023-04-10T02:08:56;99627.59;;;6.49;100.00
44979;BME280;67464;52.438;-1.904;2023-04-10T02:11:26;99627.27;;;6.56;100.00
44979;BME280;67464;52.438;-1.904;2023-04-10T02:13:45;99629.41;;;5.52;100.00
44979;BME280;67464;52.438;-1.904;2023-04-10T02:16:13;99625.19;;;6.46;100.00
44979;BME280;67464;52.438;-1.904;2023-04-10T02:18:36;99625.32;;;6.08;100.00
44979;BME280;67464;52.438;-1.904;2023-04-10T02:21:01;99624.09;;;6.72;100.00
44979;BME280;67464;52.438;-1.904;2023-04-10T02:23:26;99627.44;;;6.36;100.00
44979;BME280;67464;52.438;-1.904;2023-04-10T02:25:52;99627.29;;;6.71;100.00
44979;BME280;67464;52.438;-1.904;2023-04-10T02:28:17;99625.71;;;6.34;100.00
44979;BME280;67464;52.438;-1.904;2023-04-10T02:30:42;99616.45;;;5.80;100.00
44979;BME280;67464;52.438;-1.904;2023-04-10T02:33:08;99615.25;;;5.77;100.00
44979;BME280;67464;52.438;-1.904;2023-04-10T02:35:33;99611.11;;;6.00;100.00
44979;BME280;67464;52.438;-1.904;2023-04-10T02:37:59;99599.56;;;6.30;100.00
44979;BME280;67464;52.438;-1.904;2023-04-10T02:40:24;99597.08;;;6.48;100.00
44979;BME280;67464;52.438;-1.904;2023-04-10T02:42:49;99587.57;;;6.73;100.00
44979;BME280;67464;52.438;-1.904;2023-04-10T02:45:16;99574.56;;;6.68;100.00
44979;BME280;67464;52.438;-1.904;2023-04-10T02:47:41;99561.78;;;6.75;100.00
44979;BME280;67464;52.438;-1.904;2023-04-10T02:50:07;99549.10;;;6.94;100.00
44979;BME280;67464;52.438;-1.904;2023-04-10T02:52:32;99541.57;;;6.77;100.00
44979;BME280;67464;52.438;-1.904;2023-04-10T02:54:57;99531.20;;;6.73;100.00
44979;BME280;67464;52.438;-1.904;2023-04-10T02:57:24;99528.63;;;6.35;100.00
44979;BME280;67464;52.438;-1.904;2023-04-10T02:59:49;99525.39;;;5.91;100.00
44979;BME280;67464;52.438;-1.904;2023-04-10T03:02:14;99519.89;;;6.26;100.00
44979;BME280;67464;52.438;-1.904;2023-04-10T03:04:39;99516.84;;;5.87;100.00
44979;BME280;67464;52.438;-1.904;2023-04-10T03:07:04;99522.86;;;6.00;100.00
44979;BME280;67464;52.438;-1.904;2023-04-10T03:09:30;99522.02;;;7.16;100.00
44979;BME280;67464;52.438;-1.904;2023-04-10T03:11:55;99516.27;;;6.78;100.00
44979;BME280;67464;52.438;-1.904;2023-04-10T03:14:21;99520.17;;;6.52;100.00
44979;BME280;67464;52.438;-1.904;2023-04-10T03:16:46;99519.02;;;6.38;100.00
44979;BME280;67464;52.438;-1.904;2023-04-10T03:19:12;99518.54;;;6.38;100.00
44979;BME280;67464;52.438;-1.904;2023-04-10T03:21:37;99515.11;;;6.40;100.00
44979;BME280;67464;52.438;-1.904;2023-04-10T03:24:03;99519.68;;;6.28;100.00
44979;BME280;67464;52.438;-1.904;2023-04-10T03:26:29;99510.67;;;7.33;100.00
44979;BME280;67464;52.438;-1.904;2023-04-10T03:28:54;99513.30;;;6.95;100.00
44979;BME280;67464;52.438;-1.904;2023-04-10T03:31:20;99510.21;;;6.43;100.00
44979;BME280;67464;52.438;-1.904;2023-04-10T03:33:45;99507.21;;;7.40;100.00
44979;BME280;67464;52.438;-1.904;2023-04-10T03:36:11;99501.43;;;7.35;100.00
44979;BME280;67464;52.438;-1.904;2023-04-10T03:38:36;99498.87;;;6.96;100.00
44979;BME280;67464;52.438;-1.904;2023-04-10T03:41:02;99490.83;;;7.51;100.00
44979;BME280;67464;52.438;-1.904;2023-04-10T03:43:28;99479.56;;;8.39;100.00
44979;BME280;67464;52.438;-1.904;2023-04-10T03:45:52;99462.70;;;8.58;100.00
44979;BME280;67464;52.438;-1.904;2023-04-10T03:48:17;99470.80;;;7.94;100.00
44979;BME280;67464;52.438;-1.904;2023-04-10T03:50:43;99467.15;;;7.65;100.00
44979;BME280;67464;52.438;-1.904;2023-04-10T03:53:09;99463.19;;;6.76;100.00
44979;BME280;67464;52.438;-1.904;2023-04-10T03:55:34;99452.73;;;7.50;100.00
44979;BME280;67464;52.438;-1.904;2023-04-10T03:58:00;99446.33;;;7.32;100.00
44979;BME280;67464;52.438;-1.904;2023-04-10T04:00:26;99439.44;;;7.54;100.00
44979;BME280;67464;52.438;-1.904;2023-04-10T04:02:50;99445.93;;;7.82;100.00
44979;BME280;67464;52.438;-1.904;2023-04-10T04:05:16;99439.90;;;6.94;100.00
44979;BME280;67464;52.438;-1.904;2023-04-10T04:07:41;99437.87;;;7.00;100.00
44979;BME280;67464;52.438;-1.904;2023-04-10T04:10:07;99436.85;;;7.63;100.00
44979;BME280;67464;52.438;-1.904;2023-04-10T04:12:32;99437.82;;;7.42;100.00
44979;BME280;67464;52.438;-1.904;2023-04-10T04:14:57;99432.17;;;7.58;100.00
44979;BME280;67464;52.438;-1.904;2023-04-10T04:17:22;99427.83;;;7.98;100.00
44979;BME280;67464;52.438;-1.904;2023-04-10T04:19:47;99425.64;;;8.02;100.00
44979;BME280;67464;52.438;-1.904;2023-04-10T04:22:13;99414.91;;;8.02;100.00
44979;BME280;67464;52.438;-1.904;2023-04-10T04:24:38;99418.12;;;6.95;100.00
44979;BME280;67464;52.438;-1.904;2023-04-10T04:27:03;99420.74;;;7.53;100.00
44979;BME280;67464;52.438;-1.904;2023-04-10T04:29:29;99419.54;;;7.90;100.00
44979;BME280;67464;52.438;-1.904;2023-04-10T04:31:54;99408.30;;;7.29;100.00
44979;BME280;67464;52.438;-1.904;2023-04-10T04:34:20;99407.08;;;6.78;100.00
44979;BME280;67464;52.438;-1.904;2023-04-10T04:36:45;99398.84;;;7.96;100.00
44979;BME280;67464;52.438;-1.904;2023-04-10T04:39:11;99390.74;;;7.49;100.00
44979;BME280;67464;52.438;-1.904;2023-04-10T04:41:37;99395.55;;;7.51;100.00
44979;BME280;67464;52.438;-1.904;2023-04-10T04:44:04;99395.65;;;7.72;100.00
44979;BME280;67464;52.438;-1.904;2023-04-10T04:46:28;99393.50;;;8.35;100.00
44979;BME280;67464;52.438;-1.904;2023-04-10T04:48:54;99395.95;;;7.07;100.00
44979;BME280;67464;52.438;-1.904;2023-04-10T04:51:19;99395.16;;;7.61;100.00
44979;BME280;67464;52.438;-1.904;2023-04-10T04:53:45;99390.55;;;7.02;100.00
44979;BME280;67464;52.438;-1.904;2023-04-10T04:56:10;99387.30;;;8.19;100.00
44979;BME280;67464;52.438;-1.904;2023-04-10T04:58:36;99386.40;;;6.92;100.00
44979;BME280;67464;52.438;-1.904;2023-04-10T05:01:02;99383.95;;;7.15;100.00
44979;BME280;67464;52.438;-1.904;2023-04-10T05:03:27;99378.90;;;7.21;100.00
44979;BME280;67464;52.438;-1.904;2023-04-10T05:05:53;99378.49;;;7.22;100.00
44979;BME280;67464;52.438;-1.904;2023-04-10T05:08:18;99378.84;;;6.97;100.00
44979;BME280;67464;52.438;-1.904;2023-04-10T05:10:44;99374.30;;;7.06;100.00
44979;BME280;67464;52.438;-1.904;2023-04-10T05:13:09;99367.61;;;7.51;100.00
44979;BME280;67464;52.438;-1.904;2023-04-10T05:15:35;99371.46;;;8.44;100.00
44979;BME280;67464;52.438;-1.904;2023-04-10T05:18:00;99371.46;;;7.38;100.00
44979;BME280;67464;52.438;-1.904;2023-04-10T05:20:26;99376.93;;;6.72;100.00
44979;BME280;67464;52.438;-1.904;2023-04-10T05:22:51;99370.67;;;8.72;100.00
44979;BME280;67464;52.438;-1.904;2023-04-10T05:25:17;99369.68;;;7.61;100.00
44979;BME280;67464;52.438;-1.904;2023-04-10T05:27:42;99362.71;;;7.86;100.00
44979;BME280;67464;52.438;-1.904;2023-04-10T05:30:09;99361.60;;;7.11;100.00
44979;BME280;67464;52.438;-1.904;2023-04-10T05:32:34;99357.67;;;7.10;100.00
44979;BME280;67464;52.438;-1.904;2023-04-10T05:34:59;99355.69;;;8.69;100.00
44979;BME280;67464;52.438;-1.904;2023-04-10T05:37:25;99345.59;;;10.18;100.00
44979;BME280;67464;52.438;-1.904;2023-04-10T05:39:51;99353.35;;;7.77;100.00
44979;BME280;67464;52.438;-1.904;2023-04-10T05:42:16;99356.72;;;7.46;100.00
44979;BME280;67464;52.438;-1.904;2023-04-10T05:44:42;99353.02;;;7.68;100.00
44979;BME280;67464;52.438;-1.904;2023-04-10T05:47:06;99348.75;;;8.23;100.00
44979;BME280;67464;52.438;-1.904;2023-04-10T05:49:32;99356.95;;;8.26;100.00
44979;BME280;67464;52.438;-1.904;2023-04-10T05:51:57;99356.86;;;7.58;100.00
44979;BME280;67464;52.438;-1.904;2023-04-10T05:54:23;99351.69;;;8.06;100.00
44979;BME280;67464;52.438;-1.904;2023-04-10T05:56:48;99360.26;;;7.61;100.00
44979;BME280;67464;52.438;-1.904;2023-04-10T05:59:14;99364.85;;;6.84;100.00
44979;BME280;67464;52.438;-1.904;2023-04-10T06:01:40;99368.04;;;7.27;100.00
44979;BME280;67464;52.438;-1.904;2023-04-10T06:04:05;99359.94;;;7.51;100.00
44979;BME280;67464;52.438;-1.904;2023-04-10T06:06:31;99358.13;;;6.40;100.00
44979;BME280;67464;52.438;-1.904;2023-04-10T06:08:56;99357.37;;;6.42;100.00
44979;BME280;67464;52.438;-1.904;2023-04-10T06:11:22;99354.03;;;6.67;100.00
44979;BME280;67464;52.438;-1.904;2023-04-10T06:13:48;99348.80;;;7.61;100.00
44979;BME280;67464;52.438;-1.904;2023-04-10T06:16:13;99346.46;;;7.87;100.00
44979;BME280;67464;52.438;-1.904;2023-04-10T06:18:39;99345.14;;;7.45;100.00
44979;BME280;67464;52.438;-1.904;2023-04-10T06:21:05;99356.65;;;6.60;100.00
44979;BME280;67464;52.438;-1.904;2023-04-10T06:23:30;99350.62;;;7.31;100.00
44979;BME280;67464;52.438;-1.904;2023-04-10T06:25:56;99339.35;;;7.01;100.00
44979;BME280;67464;52.438;-1.904;2023-04-10T06:28:22;99339.38;;;7.11;100.00
44979;BME280;67464;52.438;-1.904;2023-04-10T06:30:48;99335.70;;;7.62;100.00
44979;BME280;67464;52.438;-1.904;2023-04-10T06:33:13;99331.77;;;7.46;100.00
44979;BME280;67464;52.438;-1.904;2023-04-10T06:35:39;99327.91;;;6.85;100.00
44979;BME280;67464;52.438;-1.904;2023-04-10T06:38:05;99322.32;;;7.74;100.00
44979;BME280;67464;52.438;-1.904;2023-04-10T06:40:30;99323.05;;;7.19;100.00
44979;BME280;67464;52.438;-1.904;2023-04-10T06:42:56;99327.07;;;7.23;100.00
44979;BME280;67464;52.438;-1.904;2023-04-10T06:45:22;99316.15;;;7.64;100.00
44979;BME280;67464;52.438;-1.904;2023-04-10T06:47:47;99316.05;;;7.44;100.00
44979;BME280;67464;52.438;-1.904;2023-04-10T06:50:13;99305.37;;;7.41;100.00
44979;BME280;67464;52.438;-1.904;2023-04-10T06:52:39;99304.98;;;7.64;100.00
44979;BME280;67464;52.438;-1.904;2023-04-10T06:55:05;99301.87;;;8.02;100.00
44979;BME280;67464;52.438;-1.904;2023-04-10T06:57:30;99294.22;;;7.74;100.00
44979;BME280;67464;52.438;-1.904;2023-04-10T06:59:56;99289.48;;;7.28;100.00
44979;BME280;67464;52.438;-1.904;2023-04-10T07:02:22;99296.09;;;7.32;100.00
44979;BME280;67464;52.438;-1.904;2023-04-10T07:04:47;99296.92;;;7.44;100.00
44979;BME280;67464;52.438;-1.904;2023-04-10T07:07:13;99297.94;;;6.73;100.00
44979;BME280;67464;52.438;-1.904;2023-04-10T07:09:39;99292.83;;;6.83;100.00
44979;BME280;67464;52.438;-1.904;2023-04-10T07:12:04;99284.28;;;7.08;100.00
44979;BME280;67464;52.438;-1.904;2023-04-10T07:14:32;99277.85;;;6.82;100.00
44979;BME280;67464;52.438;-1.904;2023-04-10T07:16:56;99272.73;;;7.38;100.00
44979;BME280;67464;52.438;-1.904;2023-04-10T07:19:21;99270.48;;;7.06;100.00
44979;BME280;67464;52.438;-1.904;2023-04-10T07:21:47;99269.45;;;7.30;100.00
44979;BME280;67464;52.438;-1.904;2023-04-10T07:24:13;99269.61;;;7.94;100.00
44979;BME280;67464;52.438;-1.904;2023-04-10T07:26:38;99262.85;;;7.55;100.00
44979;BME280;67464;52.438;-1.904;2023-04-10T07:29:04;99261.58;;;7.74;100.00
44979;BME280;67464;52.438;-1.904;2023-04-10T07:31:30;99250.63;;;7.80;100.00
44979;BME280;67464;52.438;-1.904;2023-04-10T07:33:55;99249.59;;;8.28;100.00
44979;BME280;67464;52.438;-1.904;2023-04-10T07:36:21;99241.23;;;7.51;100.00
44979;BME280;67464;52.438;-1.904;2023-04-10T07:38:47;99237.46;;;8.03;100.00
44979;BME280;67464;52.438;-1.904;2023-04-10T07:41:12;99228.65;;;9.17;100.00
44979;BME280;67464;52.438;-1.904;2023-04-10T07:43:38;99239.08;;;7.66;100.00
44979;BME280;67464;52.438;-1.904;2023-04-10T07:46:04;99235.92;;;8.48;100.00
44979;BME280;67464;52.438;-1.904;2023-04-10T07:48:30;99235.42;;;7.68;100.00
44979;BME280;67464;52.438;-1.904;2023-04-10T07:50:56;99237.26;;;7.82;100.00
44979;BME280;67464;52.438;-1.904;2023-04-10T07:53:21;99234.97;;;7.50;100.00
44979;BME280;67464;52.438;-1.904;2023-04-10T07:55:48;99241.62;;;7.60;100.00
44979;BME280;67464;52.438;-1.904;2023-04-10T07:58:12;99234.38;;;7.84;100.00
44979;BME280;67464;52.438;-1.904;2023-04-10T08:00:37;99240.15;;;7.50;100.00
44979;BME280;67464;52.438;-1.904;2023-04-10T08:03:04;99237.08;;;7.69;100.00
44979;BME280;67464;52.438;-1.904;2023-04-10T08:05:29;99232.15;;;7.70;100.00
44979;BME280;67464;52.438;-1.904;2023-04-10T08:07:55;99230.38;;;8.75;100.00
44979;BME280;67464;52.438;-1.904;2023-04-10T08:10:20;99231.65;;;8.25;100.00
44979;BME280;67464;52.438;-1.904;2023-04-10T08:12:46;99234.33;;;8.24;100.00
44979;BME280;67464;52.438;-1.904;2023-04-10T08:15:12;99232.88;;;8.09;100.00
44979;BME280;67464;52.438;-1.904;2023-04-10T08:17:37;99220.57;;;8.75;100.00
44979;BME280;67464;52.438;-1.904;2023-04-10T08:20:04;99220.29;;;8.58;100.00
44979;BME280;67464;52.438;-1.904;2023-04-10T08:22:29;99222.79;;;7.99;100.00
44979;BME280;67464;52.438;-1.904;2023-04-10T08:24:54;99217.37;;;7.87;100.00
44979;BME280;67464;52.438;-1.904;2023-04-10T08:27:20;99204.94;;;8.78;100.00
44979;BME280;67464;52.438;-1.904;2023-04-10T08:29:46;99196.95;;;7.99;100.00
44979;BME280;67464;52.438;-1.904;2023-04-10T08:32:11;99185.11;;;8.54;100.00
44979;BME280;67464;52.438;-1.904;2023-04-10T08:34:37;99186.70;;;6.91;100.00
44979;BME280;67464;52.438;-1.904;2023-04-10T08:37:04;99185.32;;;7.70;100.00
44979;BME280;67464;52.438;-1.904;2023-04-10T08:39:29;99187.83;;;7.71;100.00
44979;BME280;67464;52.438;-1.904;2023-04-10T08:41:54;99187.14;;;8.09;100.00
44979;BME280;67464;52.438;-1.904;2023-04-10T08:44:20;99191.28;;;7.60;100.00
44979;BME280;67464;52.438;-1.904;2023-04-10T08:46:47;99185.57;;;8.50;100.00
44979;BME280;67464;52.438;-1.904;2023-04-10T08:49:16;99183.82;;;8.21;100.00
44979;BME280;67464;52.438;-1.904;2023-04-10T08:51:40;99172.92;;;7.62;100.00
44979;BME280;67464;52.438;-1.904;2023-04-10T08:54:06;99173.91;;;7.34;100.00
44979;BME280;67464;52.438;-1.904;2023-04-10T08:56:30;99164.90;;;7.66;100.00
44979;BME280;67464;52.438;-1.904;2023-04-10T08:58:54;99153.87;;;8.89;100.00
44979;BME280;67464;52.438;-1.904;2023-04-10T09:01:20;99148.13;;;9.08;100.00
44979;BME280;67464;52.438;-1.904;2023-04-10T09:03:46;99139.08;;;9.34;100.00
44979;BME280;67464;52.438;-1.904;2023-04-10T09:06:11;99138.28;;;8.84;100.00
44979;BME280;67464;52.438;-1.904;2023-04-10T09:08:37;99134.99;;;8.60;100.00
44979;BME280;67464;52.438;-1.904;2023-04-10T09:11:02;99132.73;;;8.85;100.00
44979;BME280;67464;52.438;-1.904;2023-04-10T09:13:37;99142.49;;;7.94;100.00
44979;BME280;67464;52.438;-1.904;2023-04-10T09:15:54;99133.72;;;8.18;100.00
44979;BME280;67464;52.438;-1.904;2023-04-10T09:18:19;99126.05;;;8.90;100.00
44979;BME280;67464;52.438;-1.904;2023-04-10T09:20:44;99135.63;;;7.67;100.00
44979;BME280;67464;52.438;-1.904;2023-04-10T09:23:18;99136.71;;;8.10;100.00
44979;BME280;67464;52.438;-1.904;2023-04-10T09:25:36;99126.93;;;9.15;100.00
44979;BME280;67464;52.438;-1.904;2023-04-10T09:28:02;99121.96;;;8.51;100.00
44979;BME280;67464;52.438;-1.904;2023-04-10T09:30:32;99117.85;;;8.22;100.00
44979;BME280;67464;52.438;-1.904;2023-04-10T09:32:51;99115.57;;;8.50;100.00
44979;BME280;67464;52.438;-1.904;2023-04-10T09:35:18;99108.32;;;8.61;100.00
44979;BME280;67464;52.438;-1.904;2023-04-10T09:37:44;99098.08;;;8.92;100.00
44979;BME280;67464;52.438;-1.904;2023-04-10T09:40:19;99097.71;;;8.18;100.00
44979;BME280;67464;52.438;-1.904;2023-04-10T09:42:35;99095.77;;;8.19;100.00
44979;BME280;67464;52.438;-1.904;2023-04-10T09:45:00;99092.02;;;8.99;100.00
44979;BME280;67464;52.438;-1.904;2023-04-10T09:47:26;99080.22;;;8.66;100.00
44979;BME280;67464;52.438;-1.904;2023-04-10T09:49:52;99072.21;;;9.25;100.00
44979;BME280;67464;52.438;-1.904;2023-04-10T09:52:18;99069.21;;;9.73;100.00
44979;BME280;67464;52.438;-1.904;2023-04-10T09:54:42;99066.36;;;8.54;100.00
44979;BME280;67464;52.438;-1.904;2023-04-10T09:57:08;99060.10;;;10.01;100.00
44979;BME280;67464;52.438;-1.904;2023-04-10T09:59:36;99055.84;;;9.47;100.00
44979;BME280;67464;52.438;-1.904;2023-04-10T10:01:59;99049.34;;;10.43;100.00
44979;BME280;67464;52.438;-1.904;2023-04-10T10:04:25;99049.30;;;11.35;100.00
44979;BME280;67464;52.438;-1.904;2023-04-10T10:06:51;99040.62;;;10.21;100.00
44979;BME280;67464;52.438;-1.904;2023-04-10T10:09:16;99039.14;;;9.96;100.00
44979;BME280;67464;52.438;-1.904;2023-04-10T10:11:42;99034.83;;;12.15;100.00
44979;BME280;67464;52.438;-1.904;2023-04-10T10:14:11;99021.51;;;12.71;100.00
44979;BME280;67464;52.438;-1.904;2023-04-10T10:16:36;99012.03;;;13.92;100.00
44979;BME280;67464;52.438;-1.904;2023-04-10T10:19:05;99015.76;;;13.86;100.00
44979;BME280;67464;52.438;-1.904;2023-04-10T10:21:25;99016.93;;;11.70;100.00
44979;BME280;67464;52.438;-1.904;2023-04-10T10:23:51;99013.38;;;11.40;100.00
44979;BME280;67464;52.438;-1.904;2023-04-10T10:26:16;99006.64;;;13.59;100.00
44979;BME280;67464;52.438;-1.904;2023-04-10T10:28:42;99005.39;;;15.30;90.37
44979;BME280;67464;52.438;-1.904;2023-04-10T10:31:06;98998.76;;;16.30;80.10
44979;BME280;67464;52.438;-1.904;2023-04-10T10:33:34;98994.24;;;13.89;79.79
44979;BME280;67464;52.438;-1.904;2023-04-10T10:35:59;98978.99;;;14.89;77.80
44979;BME280;67464;52.438;-1.904;2023-04-10T10:38:22;98981.14;;;15.63;75.15
44979;BME280;67464;52.438;-1.904;2023-04-10T10:40:56;98996.11;;;15.22;72.62
44979;BME280;67464;52.438;-1.904;2023-04-10T10:43:18;98977.91;;;15.53;70.30
44979;BME280;67464;52.438;-1.904;2023-04-10T10:45:47;98975.83;;;16.59;63.65
44979;BME280;67464;52.438;-1.904;2023-04-10T10:48:04;98970.67;;;15.53;60.79
44979;BME280;67464;52.438;-1.904;2023-04-10T10:52:55;98961.61;;;14.69;60.27
44979;BME280;67464;52.438;-1.904;2023-04-10T10:55:30;98946.61;;;14.35;65.58
44979;BME280;67464;52.438;-1.904;2023-04-10T10:57:47;98944.52;;;14.75;63.65
44979;BME280;67464;52.438;-1.904;2023-04-10T11:00:13;98938.72;;;14.82;61.77
44979;BME280;67464;52.438;-1.904;2023-04-10T11:02:37;98922.21;;;15.81;62.96
44979;BME280;67464;52.438;-1.904;2023-04-10T11:05:03;98914.70;;;16.50;54.52
44979;BME280;67464;52.438;-1.904;2023-04-10T11:09:53;98906.37;;;15.89;57.41
44979;BME280;67464;52.438;-1.904;2023-04-10T11:12:21;98909.77;;;17.34;52.11
44979;BME280;67464;52.438;-1.904;2023-04-10T11:14:44;98911.06;;;17.18;51.25
44979;BME280;67464;52.438;-1.904;2023-04-10T11:17:10;98904.84;;;16.78;50.02
44979;BME280;67464;52.438;-1.904;2023-04-10T11:22:03;98911.85;;;13.58;56.03
44979;BME280;67464;52.438;-1.904;2023-04-10T11:24:26;98931.04;;;12.28;59.16
44979;BME280;67464;52.438;-1.904;2023-04-10T11:26:51;98941.44;;;11.91;74.73
44979;BME280;67464;52.438;-1.904;2023-04-10T11:31:43;98999.39;;;10.85;100.00
44979;BME280;67464;52.438;-1.904;2023-04-10T11:34:09;99010.28;;;9.86;100.00
44979;BME280;67464;52.438;-1.904;2023-04-10T11:36:36;98989.64;;;9.90;100.00
44979;BME280;67464;52.438;-1.904;2023-04-10T11:39:00;98974.44;;;10.18;100.00
44979;BME280;67464;52.438;-1.904;2023-04-10T11:41:27;98966.44;;;9.72;100.00
44979;BME280;67464;52.438;-1.904;2023-04-10T11:43:50;98973.63;;;9.71;100.00
44979;BME280;67464;52.438;-1.904;2023-04-10T11:46:16;98968.98;;;9.15;100.00
44979;BME280;67464;52.438;-1.904;2023-04-10T11:48:41;98957.47;;;9.10;100.00
44979;BME280;67464;52.438;-1.904;2023-04-10T11:51:08;98965.93;;;8.78;100.00
44979;BME280;67464;52.438;-1.904;2023-04-10T11:53:33;98951.89;;;11.71;100.00
44979;BME280;67464;52.438;-1.904;2023-04-10T11:55:58;98943.53;;;10.56;99.68
44979;BME280;67464;52.438;-1.904;2023-04-10T11:58:25;98941.65;;;11.76;97.50
44979;BME280;67464;52.438;-1.904;2023-04-10T12:00:57;98933.61;;;12.65;83.16
44979;BME280;67464;52.438;-1.904;2023-04-10T12:03:15;98931.93;;;13.88;77.34
44979;BME280;67464;52.438;-1.904;2023-04-10T12:05:45;98937.76;;;15.59;72.23
44979;BME280;67464;52.438;-1.904;2023-04-10T12:08:06;98937.34;;;15.14;62.04
44979;BME280;67464;52.438;-1.904;2023-04-10T12:12:57;98931.38;;;13.77;61.40
44979;BME280;67464;52.438;-1.904;2023-04-10T12:15:26;98928.34;;;14.41;61.40
44979;BME280;67464;52.438;-1.904;2023-04-10T12:17:48;98925.77;;;15.12;60.51
44979;BME280;67464;52.438;-1.904;2023-04-10T12:20:14;98938.54;;;15.14;59.45
44979;BME280;67464;52.438;-1.904;2023-04-10T12:22:38;98942.24;;;14.42;100.00
44979;BME280;67464;52.438;-1.904;2023-04-10T12:25:04;98950.45;;;13.35;100.00
44979;BME280;67464;52.438;-1.904;2023-04-10T12:27:29;98946.75;;;11.77;100.00
44979;BME280;67464;52.438;-1.904;2023-04-10T12:29:56;98964.70;;;10.44;100.00
44979;BME280;67464;52.438;-1.904;2023-04-10T12:32:20;98961.45;;;10.26;100.00
44979;BME280;67464;52.438;-1.904;2023-04-10T12:34:49;98957.34;;;10.34;100.00
44979;BME280;67464;52.438;-1.904;2023-04-10T12:37:12;98956.67;;;10.14;100.00
44979;BME280;67464;52.438;-1.904;2023-04-10T12:39:37;98955.09;;;11.47;100.00
44979;BME280;67464;52.438;-1.904;2023-04-10T12:42:11;98971.18;;;10.64;100.00
44979;BME280;67464;52.438;-1.904;2023-04-10T12:44:28;98965.83;;;11.48;97.92
44979;BME280;67464;52.438;-1.904;2023-04-10T12:46:59;98956.61;;;13.15;81.56
44979;BME280;67464;52.438;-1.904;2023-04-10T12:49:19;98947.11;;;13.78;69.11
44979;BME280;67464;52.438;-1.904;2023-04-10T12:51:46;98945.52;;;14.02;64.73
44979;BME280;67464;52.438;-1.904;2023-04-10T12:54:11;98946.56;;;14.11;61.79